createdAt,value
2023-03-29T00:01:42.237Z,2.50
2023-03-29T00:04:10.297Z,3.07
2023-03-29T00:06:37.786Z,3.13
2023-03-29T00:09:09.613Z,3.20
2023-03-29T00:11:36.415Z,2.87
2023-03-29T00:14:03.242Z,2.53
2023-03-29T00:16:30.217Z,2.43
2023-03-29T00:18:57.539Z,3.23
2023-03-29T00:21:24.641Z,3.10
2023-03-29T00:23:51.300Z,2.17
2023-03-29T00:26:18.036Z,2.63
2023-03-29T00:28:44.855Z,2.80
2023-03-29T00:31:14.842Z,2.17
2023-03-29T00:33:42.451Z,2.37
2023-03-29T00:36:10.711Z,2.70
2023-03-29T00:38:38.376Z,2.60
2023-03-29T00:41:06.876Z,2.33
2023-03-29T00:44:30.579Z,2.53
2023-03-29T00:46:57.365Z,2.70
2023-03-29T00:49:24.113Z,2.90
2023-03-29T00:51:51.104Z,3.07
2023-03-29T00:54:18.758Z,3.10
2023-03-29T00:56:49.990Z,3.20
2023-03-29T00:59:20.578Z,3.20
2023-03-29T01:02:02.125Z,2.93
2023-03-29T01:04:41.633Z,3.20
2023-03-29T01:07:18.638Z,2.80
2023-03-29T01:09:51.832Z,2.63
2023-03-29T01:12:23.681Z,2.43
2023-03-29T01:15:02.150Z,3.03
2023-03-29T01:17:31.493Z,2.70
2023-03-29T01:20:10.550Z,2.40
2023-03-29T01:22:40.046Z,2.67
2023-03-29T01:25:17.222Z,2.90
2023-03-29T01:27:53.219Z,2.53
2023-03-29T01:30:37.213Z,2.97
2023-03-29T01:33:11.479Z,2.80
2023-03-29T01:35:42.487Z,2.70
2023-03-29T01:38:15.448Z,3.13
2023-03-29T01:40:42.673Z,3.03
2023-03-29T01:43:21.841Z,2.17
2023-03-29T01:46:09.487Z,2.47
2023-03-29T01:48:56.885Z,2.20
2023-03-29T01:51:46.487Z,2.70
2023-03-29T01:54:19.127Z,2.40
2023-03-29T01:56:50.449Z,2.43
2023-03-29T01:59:24.283Z,2.77
2023-03-29T02:01:55.252Z,3.70
2023-03-29T02:04:27.818Z,3.30
2023-03-29T02:06:55.772Z,4.17
2023-03-29T02:09:23.470Z,3.87
2023-03-29T02:11:51.807Z,3.30
2023-03-29T02:14:19.328Z,3.23
2023-03-29T02:16:46.403Z,3.73
2023-03-29T02:19:15.296Z,3.97
2023-03-29T02:21:53.908Z,3.20
2023-03-29T02:24:24.019Z,3.10
2023-03-29T02:26:51.441Z,3.53
2023-03-29T02:29:18.262Z,3.20
2023-03-29T02:31:53.858Z,3.13
2023-03-29T02:34:30.123Z,3.17
2023-03-29T02:37:04.170Z,3.30
2023-03-29T02:39:33.788Z,3.17
2023-03-29T02:42:02.809Z,3.10
2023-03-29T02:44:32.703Z,2.63
2023-03-29T02:47:05.784Z,3.10
2023-03-29T02:49:32.864Z,3.60
2023-03-29T02:52:07.341Z,3.20
2023-03-29T02:54:37.997Z,3.37
2023-03-29T02:57:08.863Z,4.30
2023-03-29T02:59:36.380Z,3.73
2023-03-29T03:02:03.272Z,3.70
2023-03-29T03:04:30.423Z,3.73
2023-03-29T03:06:57.506Z,3.60
2023-03-29T03:09:24.431Z,3.83
2023-03-29T03:11:51.298Z,3.60
2023-03-29T03:14:19.031Z,4.00
2023-03-29T03:16:45.984Z,4.33
2023-03-29T03:19:13.306Z,3.90
2023-03-29T03:21:40.115Z,4.40
2023-03-29T03:24:07.635Z,3.30
2023-03-29T03:26:35.906Z,4.10
2023-03-29T03:29:02.816Z,3.50
2023-03-29T03:31:29.640Z,4.30
2023-03-29T03:33:56.733Z,3.80
2023-03-29T03:36:29.072Z,4.20
2023-03-29T03:38:57.657Z,3.50
2023-03-29T03:41:26.130Z,3.90
2023-03-29T03:43:53.070Z,3.70
2023-03-29T03:46:20.269Z,3.90
2023-03-29T03:48:47.254Z,3.70
2023-03-29T03:51:14.197Z,3.70
2023-03-29T03:53:41.669Z,3.70
2023-03-29T03:56:10.148Z,4.00
2023-03-29T03:58:37.828Z,3.33
2023-03-29T04:01:05.901Z,4.10
2023-03-29T04:03:32.698Z,3.57
2023-03-29T04:06:01.564Z,3.30
2023-03-29T04:08:28.280Z,4.27
2023-03-29T04:10:56.857Z,3.80
2023-03-29T04:13:24.290Z,3.83
2023-03-29T04:15:54.144Z,3.63
2023-03-29T04:18:21.542Z,4.37
2023-03-29T04:20:49.028Z,3.70
2023-03-29T04:23:16.014Z,4.00
2023-03-29T04:25:43.087Z,3.90
2023-03-29T04:28:11.108Z,3.50
2023-03-29T04:30:37.906Z,4.30
2023-03-29T04:33:04.661Z,3.80
2023-03-29T04:35:31.564Z,3.23
2023-03-29T04:37:58.569Z,3.60
2023-03-29T04:40:25.315Z,3.70
2023-03-29T04:42:52.557Z,3.63
2023-03-29T04:45:19.277Z,3.90
2023-03-29T04:47:46.504Z,3.93
2023-03-29T04:50:13.900Z,3.70
2023-03-29T04:52:41.379Z,3.40
2023-03-29T04:55:09.254Z,4.00
2023-03-29T04:57:36.041Z,3.40
2023-03-29T05:00:13.739Z,3.60
2023-03-29T05:02:41.182Z,3.33
2023-03-29T05:05:08.535Z,3.10
2023-03-29T05:07:35.716Z,2.67
2023-03-29T05:10:02.569Z,3.63
2023-03-29T05:12:29.324Z,3.80
2023-03-29T05:14:56.909Z,2.93
2023-03-29T05:17:24.074Z,2.83
2023-03-29T05:19:51.088Z,3.30
2023-03-29T05:22:18.004Z,3.33
2023-03-29T05:24:44.760Z,2.93
2023-03-29T05:27:11.782Z,3.20
2023-03-29T05:29:38.438Z,2.87
2023-03-29T05:32:05.485Z,3.10
2023-03-29T05:34:32.268Z,3.23
2023-03-29T05:36:59.199Z,2.70
2023-03-29T05:39:25.989Z,2.67
2023-03-29T05:41:53.079Z,3.40
2023-03-29T05:44:19.835Z,3.10
2023-03-29T05:46:46.980Z,2.97
2023-03-29T05:49:13.935Z,2.83
2023-03-29T05:51:42.028Z,2.40
2023-03-29T05:54:08.769Z,2.87
2023-03-29T05:56:35.571Z,3.40
2023-03-29T05:59:02.289Z,2.87
2023-03-29T06:01:29.217Z,2.83
2023-03-29T06:03:57.360Z,3.10
2023-03-29T06:06:24.126Z,3.00
2023-03-29T06:08:50.921Z,2.70
2023-03-29T06:11:17.779Z,2.53
2023-03-29T06:13:44.498Z,3.10
2023-03-29T06:16:13.037Z,2.83
2023-03-29T06:18:41.022Z,2.80
2023-03-29T06:21:09.199Z,3.03
2023-03-29T06:23:36.946Z,2.80
2023-03-29T06:26:05.742Z,2.40
2023-03-29T06:28:32.957Z,2.67
2023-03-29T06:31:02.694Z,2.67
2023-03-29T06:33:30.833Z,3.13
2023-03-29T06:35:57.971Z,2.47
2023-03-29T06:38:26.731Z,2.60
2023-03-29T06:41:01.196Z,3.00
2023-03-29T06:43:28.320Z,2.40
2023-03-29T06:45:55.178Z,2.70
2023-03-29T06:48:22.176Z,3.17
2023-03-29T06:50:49.344Z,2.70
2023-03-29T06:53:17.015Z,2.80
2023-03-29T06:55:43.787Z,2.60
2023-03-29T06:58:11.084Z,2.40
2023-03-29T07:00:39.136Z,2.20
2023-03-29T07:03:09.827Z,2.73
2023-03-29T07:05:40.717Z,2.37
2023-03-29T07:08:08.225Z,2.50
2023-03-29T07:10:47.563Z,3.03
2023-03-29T07:13:15.599Z,2.90
2023-03-29T07:15:43.730Z,2.67
2023-03-29T07:18:12.511Z,2.60
2023-03-29T07:20:40.560Z,2.67
2023-03-29T07:23:09.121Z,2.97
2023-03-29T07:25:37.888Z,2.90
2023-03-29T07:28:06.134Z,3.40
2023-03-29T07:30:33.324Z,2.57
2023-03-29T07:33:00.541Z,3.23
2023-03-29T07:35:27.937Z,2.43
2023-03-29T07:37:55.719Z,2.80
2023-03-29T07:40:26.321Z,2.47
2023-03-29T07:42:55.210Z,2.57
2023-03-29T07:45:26.768Z,2.90
2023-03-29T07:47:57.103Z,2.83
2023-03-29T07:50:25.124Z,2.80
2023-03-29T07:52:51.925Z,2.50
2023-03-29T07:55:18.960Z,2.80
2023-03-29T07:57:46.202Z,3.33
2023-03-29T08:00:17.350Z,3.20
2023-03-29T08:02:45.883Z,3.37
2023-03-29T08:05:15.456Z,3.77
2023-03-29T08:07:46.953Z,3.40
2023-03-29T08:10:19.352Z,3.20
2023-03-29T08:12:47.509Z,2.97
2023-03-29T08:15:15.111Z,3.23
2023-03-29T08:17:41.993Z,3.00
2023-03-29T08:20:11.339Z,3.10
2023-03-29T08:22:38.966Z,2.53
2023-03-29T08:25:07.301Z,3.20
2023-03-29T08:27:34.985Z,2.20
2023-03-29T08:30:01.809Z,3.80
2023-03-29T08:32:28.819Z,2.60
2023-03-29T08:34:55.738Z,2.90
2023-03-29T08:37:24.642Z,2.70
2023-03-29T08:39:51.523Z,2.43
2023-03-29T08:42:46.489Z,2.80
2023-03-29T08:45:27.724Z,2.20
2023-03-29T08:47:59.822Z,2.60
2023-03-29T08:50:35.240Z,2.30
2023-03-29T08:53:07.056Z,2.47
2023-03-29T08:55:42.070Z,3.13
2023-03-29T08:58:15.817Z,2.20
2023-03-29T09:00:55.207Z,2.50
2023-03-29T09:03:26.042Z,2.20
2023-03-29T09:06:10.915Z,2.13
2023-03-29T09:08:49.355Z,2.77
2023-03-29T09:11:19.386Z,3.30
2023-03-29T09:13:55.108Z,2.83
2023-03-29T09:17:02.840Z,3.10
2023-03-29T09:19:54.511Z,2.90
2023-03-29T09:22:36.069Z,2.97
2023-03-29T09:25:12.980Z,3.60
2023-03-29T09:27:50.350Z,2.73
2023-03-29T09:30:25.971Z,3.00
2023-03-29T09:32:57.540Z,2.93
2023-03-29T09:35:41.126Z,2.43
2023-03-29T09:38:13.321Z,2.80
2023-03-29T09:40:46.544Z,2.90
2023-03-29T09:43:18.388Z,2.30
2023-03-29T09:45:51.281Z,2.60
2023-03-29T09:48:19.705Z,2.90
2023-03-29T09:50:51.332Z,3.00
2023-03-29T09:53:20.650Z,2.57
2023-03-29T09:55:50.477Z,2.37
2023-03-29T09:58:21.728Z,2.47
2023-03-29T10:00:49.392Z,2.43
2023-03-29T10:03:21.143Z,2.50
2023-03-29T10:05:51.595Z,2.57
2023-03-29T10:08:22.627Z,2.37
2023-03-29T10:10:49.758Z,2.63
2023-03-29T10:13:26.898Z,2.80
2023-03-29T10:16:09.263Z,2.83
2023-03-29T10:18:43.121Z,2.10
2023-03-29T10:21:16.714Z,2.20
2023-03-29T10:23:44.284Z,2.40
2023-03-29T10:26:22.913Z,2.20
2023-03-29T10:28:53.878Z,3.00
2023-03-29T10:31:22.458Z,3.10
2023-03-29T10:33:57.119Z,2.73
2023-03-29T10:36:27.093Z,2.63
2023-03-29T10:38:57.173Z,2.30
2023-03-29T10:41:25.310Z,2.60
2023-03-29T10:43:52.125Z,2.77
2023-03-29T10:46:33.809Z,2.13
2023-03-29T10:49:05.875Z,2.30
2023-03-29T10:51:34.468Z,1.70
2023-03-29T10:54:02.463Z,2.20
2023-03-29T10:56:58.822Z,2.10
2023-03-29T10:59:39.406Z,2.07
2023-03-29T11:02:15.381Z,2.10
2023-03-29T11:05:05.938Z,2.00
2023-03-29T11:07:37.191Z,1.70
2023-03-29T11:10:19.128Z,1.83
2023-03-29T11:13:10.701Z,2.20
2023-03-29T11:15:58.701Z,2.40
2023-03-29T11:19:02.390Z,2.20
2023-03-29T11:21:38.003Z,2.20
2023-03-29T11:24:27.371Z,2.27
2023-03-29T11:27:01.049Z,2.27
2023-03-29T11:29:49.060Z,2.00
2023-03-29T11:32:23.967Z,3.07
2023-03-29T11:38:29.228Z,1.93
2023-03-29T11:41:08.462Z,1.83
2023-03-29T11:43:44.266Z,1.60
2023-03-29T11:46:32.842Z,2.10
2023-03-29T11:49:05.624Z,2.20
2023-03-29T11:51:37.895Z,2.67
2023-03-29T11:54:20.058Z,2.20
2023-03-29T11:56:54.611Z,2.07
2023-03-29T11:59:34.578Z,1.90
2023-03-29T12:02:30.844Z,1.83
2023-03-29T12:05:01.280Z,1.90
2023-03-29T12:07:40.002Z,2.10
2023-03-29T12:10:27.324Z,2.40
2023-03-29T12:13:15.046Z,2.27
2023-03-29T12:15:48.588Z,2.17
2023-03-29T12:18:40.910Z,2.33
2023-03-29T12:21:20.139Z,2.30
2023-03-29T12:23:48.126Z,1.97
2023-03-29T12:26:36.434Z,2.70
2023-03-29T12:29:05.677Z,2.00
2023-03-29T12:31:57.319Z,2.10
2023-03-29T12:34:44.118Z,2.63
2023-03-29T12:37:17.175Z,2.03
2023-03-29T12:39:44.296Z,2.37
2023-03-29T12:42:18.079Z,2.00
2023-03-29T12:45:05.934Z,2.17
2023-03-29T12:47:37.297Z,2.30
2023-03-29T12:50:04.728Z,1.27
2023-03-29T12:52:36.610Z,1.63
2023-03-29T12:55:20.788Z,1.63
2023-03-29T12:58:25.948Z,1.60
2023-03-29T13:01:29.992Z,1.70
2023-03-29T13:04:21.628Z,1.53
2023-03-29T13:07:02.834Z,1.37
2023-03-29T13:09:52.890Z,1.40
2023-03-29T13:12:22.838Z,1.67
2023-03-29T13:14:55.879Z,1.73
2023-03-29T13:17:47.827Z,1.87
2023-03-29T13:20:46.539Z,1.67
2023-03-29T13:23:47.222Z,1.60
2023-03-29T13:26:35.699Z,2.00
2023-03-29T13:29:31.064Z,1.30
2023-03-29T13:32:25.927Z,1.67
2023-03-29T13:35:11.610Z,1.50
2023-03-29T13:40:56.781Z,1.80
2023-03-29T13:43:33.620Z,1.67
2023-03-29T13:46:00.484Z,1.90
2023-03-29T13:48:30.962Z,1.37
2023-03-29T13:51:05.038Z,1.43
2023-03-29T13:53:37.384Z,1.80
2023-03-29T13:56:08.190Z,1.50
2023-03-29T13:58:53.689Z,1.73
2023-03-29T14:01:54.574Z,1.50
2023-03-29T14:04:28.490Z,1.70
2023-03-29T14:06:56.961Z,1.57
2023-03-29T14:09:30.090Z,1.50
2023-03-29T14:11:59.364Z,1.87
2023-03-29T14:14:28.580Z,1.27
2023-03-29T14:16:56.699Z,1.47
2023-03-29T14:19:32.103Z,1.90
2023-03-29T14:22:01.841Z,1.73
2023-03-29T14:24:38.501Z,1.53
2023-03-29T14:27:07.058Z,1.67
2023-03-29T14:29:35.734Z,1.80
2023-03-29T14:32:16.826Z,1.70
2023-03-29T14:34:48.243Z,1.40
2023-03-29T14:37:21.771Z,1.30
2023-03-29T14:39:50.199Z,1.73
2023-03-29T14:42:26.780Z,2.00
2023-03-29T14:45:01.983Z,1.57
2023-03-29T14:47:31.784Z,1.30
2023-03-29T14:50:01.779Z,1.30
2023-03-29T14:52:30.385Z,1.63
2023-03-29T14:55:00.128Z,1.90
2023-03-29T14:57:32.672Z,1.40
2023-03-29T15:00:02.330Z,1.40
2023-03-29T15:02:31.500Z,1.50
2023-03-29T15:05:07.472Z,1.70
2023-03-29T15:07:36.495Z,2.03
2023-03-29T15:10:08.303Z,1.50
2023-03-29T15:12:37.936Z,1.60
2023-03-29T15:15:07.850Z,1.30
2023-03-29T15:17:51.121Z,1.63
2023-03-29T15:20:27.975Z,1.57
2023-03-29T15:23:15.729Z,1.40
2023-03-29T15:25:55.254Z,1.50
2023-03-29T15:28:34.056Z,1.57
2023-03-29T15:31:11.198Z,1.50
2023-03-29T15:33:40.436Z,1.70
2023-03-29T15:36:10.019Z,1.50
2023-03-29T15:38:44.130Z,1.80
2023-03-29T15:41:13.323Z,2.00
2023-03-29T15:43:41.278Z,1.60
2023-03-29T15:46:08.603Z,3.00
2023-03-29T15:48:35.570Z,5.00
2023-03-29T15:51:06.218Z,3.40
2023-03-29T15:53:33.450Z,6.80
2023-03-29T15:56:01.984Z,3.23
2023-03-29T15:58:32.359Z,2.10
2023-03-29T16:01:37.266Z,2.10
2023-03-29T16:04:06.809Z,2.60
2023-03-29T16:06:34.827Z,2.13
2023-03-29T16:09:01.903Z,1.90
2023-03-29T16:11:28.711Z,2.17
2023-03-29T16:13:56.405Z,1.63
2023-03-29T16:16:23.865Z,2.30
2023-03-29T16:18:50.784Z,2.17
2023-03-29T16:21:19.136Z,2.10
2023-03-29T16:23:47.073Z,2.80
2023-03-29T16:26:16.603Z,2.23
2023-03-29T16:28:43.823Z,2.50
2023-03-29T16:31:13.022Z,2.60
2023-03-29T16:33:41.427Z,2.83
2023-03-29T16:36:09.029Z,2.23
2023-03-29T16:38:36.104Z,2.67
2023-03-29T16:41:02.926Z,2.40
2023-03-29T16:43:29.698Z,2.73
2023-03-29T16:45:57.104Z,2.50
2023-03-29T16:48:24.130Z,2.80
2023-03-29T16:50:51.285Z,3.50
2023-03-29T16:53:21.325Z,2.60
2023-03-29T16:55:48.677Z,2.90
2023-03-29T16:58:15.596Z,2.37
2023-03-29T17:00:44.401Z,2.40
2023-03-29T17:03:12.755Z,2.70
2023-03-29T17:05:42.744Z,2.90
2023-03-29T17:08:10.229Z,2.73
2023-03-29T17:10:40.662Z,3.37
2023-03-29T17:13:08.106Z,2.83
2023-03-29T17:15:38.116Z,3.60
2023-03-29T17:18:06.534Z,3.63
2023-03-29T17:20:33.393Z,3.00
2023-03-29T17:23:00.170Z,3.77
2023-03-29T17:25:26.908Z,3.10
2023-03-29T17:27:54.168Z,3.53
2023-03-29T17:30:21.144Z,3.10
2023-03-29T17:32:47.999Z,3.80
2023-03-29T17:35:14.860Z,3.70
2023-03-29T17:37:42.592Z,3.60
2023-03-29T17:40:13.964Z,3.27
2023-03-29T17:42:41.679Z,3.50
2023-03-29T17:45:09.905Z,3.57
2023-03-29T17:47:37.477Z,2.77
2023-03-29T17:50:06.232Z,2.73
2023-03-29T17:52:33.263Z,3.00
2023-03-29T17:55:00.306Z,2.33
2023-03-29T17:57:27.240Z,2.80
2023-03-29T17:59:54.121Z,3.10
2023-03-29T18:02:23.513Z,3.10
2023-03-29T18:04:51.798Z,2.93
2023-03-29T18:07:18.680Z,3.43
2023-03-29T18:09:45.515Z,2.80
2023-03-29T18:12:12.549Z,3.23
2023-03-29T18:14:39.373Z,2.53
2023-03-29T18:17:06.763Z,3.83
2023-03-29T18:19:33.703Z,5.37
2023-03-29T18:22:00.832Z,5.50
2023-03-29T18:24:27.781Z,4.43
2023-03-29T18:26:54.631Z,3.77
2023-03-29T18:29:21.426Z,4.63
2023-03-29T18:31:48.450Z,4.00
2023-03-29T18:34:15.699Z,5.00
2023-03-29T18:36:42.563Z,4.03
2023-03-29T18:39:09.668Z,4.30
2023-03-29T18:41:37.389Z,4.23
2023-03-29T18:44:05.635Z,4.53
2023-03-29T18:46:33.284Z,3.87
2023-03-29T18:49:01.323Z,4.67
2023-03-29T18:51:28.376Z,3.87
2023-03-29T18:53:56.528Z,4.17
2023-03-29T18:56:23.542Z,3.00
2023-03-29T18:58:50.473Z,4.20
2023-03-29T19:01:17.761Z,3.60
2023-03-29T19:03:45.838Z,4.10
2023-03-29T19:06:12.984Z,4.00
2023-03-29T19:08:41.486Z,4.13
2023-03-29T19:11:11.287Z,3.60
2023-03-29T19:13:38.351Z,4.33
2023-03-29T19:16:06.066Z,4.43
2023-03-29T19:18:33.828Z,3.90
2023-03-29T19:21:01.204Z,4.17
2023-03-29T19:23:28.799Z,4.00
2023-03-29T19:25:57.680Z,4.67
2023-03-29T19:28:25.995Z,4.43
2023-03-29T19:30:53.386Z,4.50
2023-03-29T19:33:20.924Z,4.60
2023-03-29T19:35:50.970Z,5.20
2023-03-29T19:38:19.158Z,5.23
2023-03-29T19:40:47.110Z,5.00
2023-03-29T19:43:17.271Z,5.33
2023-03-29T19:45:48.879Z,6.00
2023-03-29T19:50:47.974Z,5.67
2023-03-29T19:53:14.965Z,5.07
2023-03-29T19:55:43.242Z,5.50
2023-03-29T19:58:10.133Z,6.33
2023-03-29T20:00:38.964Z,5.10
2023-03-29T20:03:09.735Z,5.80
2023-03-29T20:05:38.442Z,6.63
2023-03-29T20:08:06.701Z,6.23
2023-03-29T20:10:34.111Z,6.67
2023-03-29T20:13:00.947Z,5.63
2023-03-29T20:15:27.900Z,5.47
2023-03-29T20:17:59.477Z,6.20
2023-03-29T20:20:27.165Z,6.50
2023-03-29T20:22:58.229Z,6.30
2023-03-29T20:25:25.927Z,7.63
2023-03-29T20:27:53.215Z,6.80
2023-03-29T20:30:20.614Z,6.93
2023-03-29T20:32:47.604Z,7.90
2023-03-29T20:35:14.554Z,6.70
2023-03-29T20:37:41.478Z,7.37
2023-03-29T20:40:10.524Z,6.13
2023-03-29T20:42:38.740Z,7.00
2023-03-29T20:45:07.998Z,8.80
2023-03-29T20:47:44.625Z,6.93
2023-03-29T20:50:11.562Z,5.73
2023-03-29T20:52:38.342Z,5.57
2023-03-29T20:55:05.743Z,5.67
2023-03-29T20:57:32.642Z,5.70
2023-03-29T20:59:59.907Z,5.53
2023-03-29T21:02:27.338Z,5.23
2023-03-29T21:04:54.343Z,5.23
2023-03-29T21:07:21.621Z,6.10
2023-03-29T21:09:49.918Z,6.23
2023-03-29T21:12:17.373Z,6.73
2023-03-29T21:14:44.788Z,4.73
2023-03-29T21:17:12.078Z,4.87
2023-03-29T21:19:39.519Z,6.73
2023-03-29T21:22:06.735Z,6.80
2023-03-29T21:24:34.021Z,6.57
2023-03-29T21:27:00.929Z,7.33
2023-03-29T21:29:27.866Z,7.70
2023-03-29T21:31:55.014Z,6.80
2023-03-29T21:34:21.895Z,6.83
2023-03-29T21:36:49.232Z,5.67
2023-03-29T21:39:16.246Z,6.00
2023-03-29T21:41:43.320Z,4.87
2023-03-29T21:44:10.413Z,5.00
2023-03-29T21:46:37.209Z,5.53
2023-03-29T21:49:04.264Z,6.70
2023-03-29T21:51:30.972Z,7.67
2023-03-29T21:53:57.716Z,11.23
2023-03-29T21:56:24.510Z,8.27
2023-03-29T21:58:51.225Z,7.37
2023-03-29T22:01:17.993Z,7.17
2023-03-29T22:03:44.887Z,6.93
2023-03-29T22:06:14.158Z,6.93
2023-03-29T22:08:41.163Z,5.93
2023-03-29T22:11:11.451Z,6.17
2023-03-29T22:13:38.982Z,6.70
2023-03-29T22:16:06.855Z,6.70
2023-03-29T22:18:43.654Z,5.80
2023-03-29T22:21:16.358Z,6.20
2023-03-29T22:23:44.941Z,5.17
2023-03-29T22:26:13.692Z,5.13
2023-03-29T22:28:41.717Z,4.60
2023-03-29T22:31:11.538Z,4.50
2023-03-29T22:33:38.782Z,4.53
2023-03-29T22:36:15.712Z,3.80
2023-03-29T22:38:42.936Z,3.60
2023-03-29T22:41:09.885Z,3.50
2023-03-29T22:43:37.132Z,4.00
2023-03-29T22:46:05.859Z,3.93
2023-03-29T22:48:32.743Z,2.97
2023-03-29T22:50:59.606Z,3.40
2023-03-29T22:53:27.181Z,3.07
2023-03-29T22:55:54.691Z,2.97
2023-03-29T22:58:21.945Z,3.63
2023-03-29T23:00:49.453Z,3.73
2023-03-29T23:03:16.684Z,2.60
2023-03-29T23:05:50.779Z,3.30
2023-03-29T23:08:18.091Z,3.10
2023-03-29T23:10:46.190Z,2.80
2023-03-29T23:13:15.657Z,2.40
2023-03-29T23:15:47.297Z,3.10
2023-03-29T23:18:15.799Z,3.50
2023-03-29T23:20:44.380Z,3.10
2023-03-29T23:23:11.633Z,3.30
2023-03-29T23:25:38.303Z,3.70
2023-03-29T23:28:05.131Z,3.97
2023-03-29T23:30:33.791Z,3.17
2023-03-29T23:33:00.609Z,3.53
2023-03-29T23:35:27.413Z,3.27
2023-03-29T23:37:54.289Z,3.37
2023-03-29T23:40:21.312Z,3.20
2023-03-29T23:42:48.957Z,3.40
2023-03-29T23:45:18.674Z,3.33
2023-03-29T23:47:46.188Z,2.80
2023-03-29T23:50:14.434Z,3.47
2023-03-29T23:52:42.104Z,3.03
2023-03-29T23:55:14.341Z,3.67
2023-03-29T23:57:42.009Z,4.30
